Flight Track Log - Related Links

Times and Time Zones

All times are in EDT time to prevent confusion due to time zone crossing. See the N244A flight status page for this flight to view local times or setup timezone preferences in your user account.

Time Position Orientation Groundspeed Altitude Reporting Facility
EDT Latitude Longitude Course Direction KTS MPH feet Rate Location/Type
Wed 06:38:06 PM 39.2278 -76.6286 95° East 161 185 2,300  Level Washington Center
Wed 06:39:07 PM 39.2222 -76.5428 95° East 176 203 5,100 3,050 Climbing Washington Center
Wed 06:40:06 PM 39.2022 -76.4406 104° East 230 265 8,400 2,824 Climbing Washington Center
Wed 06:41:06 PM 39.1717 -76.3253 109° East 286 329 10,700 2,262 Climbing Washington Center
Wed 06:42:08 PM 39.1517 -76.1831 100° East 343 395 13,000 2,607 Climbing Washington Center
Wed 06:43:08 PM 39.1731 -76.0494 78° East 417 480 16,000 3,000 Climbing Washington Center
Wed 06:44:06 PM 39.1942 -75.8994 80° East 417 480 18,900 2,319 Climbing Washington Center
Wed 06:45:07 PM 39.2758 -75.7767 49° Northeast 417 480 20,600 1,475 Climbing Washington Center
Wed 06:46:08 PM 39.3678 -75.6533 46° Northeast 436 502 21,900 1,210 Climbing Washington Center
Wed 06:47:06 PM 39.4678 -75.5269 44° Northeast 471 542 23,000 1,067 Climbing Washington Center
Wed 06:49:08 PM 39.6783 -75.2483 45° Northeast 526 605 25,100 1,043 Climbing New York Center
Wed 06:50:10 PM 39.7778 -75.0981 49° Northeast 543 625 26,200 1,050 Climbing New York Center
Wed 06:51:08 PM 39.8811 -74.9531 47° Northeast 548 631 27,200 1,008 Climbing New York Center
Wed 06:52:09 PM 39.9861 -74.8075 47° Northeast 548 631 28,200 800 Climbing New York Center
Wed 06:53:08 PM 40.0872 -74.6561 49° Northeast 548 631 28,800 403 Climbing New York Center
Wed 06:54:08 PM 40.2014 -74.4750 50° Northeast 559 643 29,000 98 Climbing New York Center
Wed 06:55:10 PM 40.3083 -74.3175 48° Northeast 575 662 29,000  Level New York Center
Wed 06:57:11 PM 40.5033 -74.0128 50° Northeast 578 665 29,000 -297 Level Boston Center
Wed 06:58:12 PM 40.6264 -73.8136 51° Northeast 582 670 28,100 -787 Descending Boston Center
Wed 06:59:13 PM 40.7156 -73.6706 51° Northeast 578 665 27,400 -541 Descending Boston Center
Wed 07:00:14 PM 40.8300 -73.4889 50° Northeast 570 656 27,000 -344 Descending Boston Center
Wed 07:01:15 PM 40.9356 -73.3292 49° Northeast 563 648 26,700 -1,033 Descending Boston Center
Wed 07:02:16 PM 41.0381 -73.1786 48° Northeast 555 639 24,900 -1,721 Descending Boston Center
Wed 07:03:17 PM 41.1303 -73.0192 52° Northeast 552 635 23,200 -934 Descending Boston Center
Wed 07:04:18 PM 41.1972 -72.8419 63° Northeast 542 624 23,000 -98 Descending Boston Center
Wed 07:05:19 PM 41.2642 -72.6608 64° Northeast 548 631 23,000  Level Boston Center
Wed 07:06:20 PM 41.3375 -72.4711 63° Northeast 553 636 23,000 -541 Level Boston Center
Wed 07:07:21 PM 41.4025 -72.2939 64° Northeast 537 618 21,900 -1,736 Descending Boston Center
Wed 07:08:21 PM 41.4683 -72.1189 63° Northeast 530 610 19,500 -2,876 Descending Boston Center
Wed 07:09:22 PM 41.5397 -71.9306 63° Northeast 517 595 16,100 -2,852 Descending Boston Center
Wed 07:10:23 PM 41.6008 -71.7661 64° Northeast 499 574 13,700 -1,918 Descending Boston Center
Wed 07:11:24 PM 41.6561 -71.6189 63° Northeast 453 521 12,200 -934 Descending Boston Center
Wed 07:12:25 PM 41.7103 -71.4881 61° Northeast 377 434 11,800 -590 Descending Boston Center
Wed 07:13:26 PM 41.7564 -71.3844 59° Northeast 329 379 11,000 -393 Descending Boston Center
Wed 07:14:27 PM 41.7981 -71.2833 61° Northeast 312 359 11,000 -295 Level Boston Center
Wed 07:15:28 PM 41.8308 -71.1758 68° East 315 362 10,400 -934 Descending Boston Center
Wed 07:16:29 PM 41.8531 -71.0617 75° East 318 366 9,100 -1,180 Descending Boston Center
Wed 07:17:30 PM 41.8803 -70.9406 73° East 316 364 8,000 -550 Descending Boston Center
Wed 07:18:29 PM 41.9000 -70.8333 76° East 278 320 8,000  Level KA90
Wed 07:19:32 PM 41.9272 -70.7453 67° East 270 311 8,000 49 Level Boston Center
Wed 07:20:32 PM 41.9439 -70.6483 77° East 275 316 8,100 -198 Climbing Boston Center
Wed 07:21:33 PM 42.0100 -70.5842 36° Northeast 293 337 7,600 -821 Descending Boston Center
Wed 07:22:29 PM 42.0833 -70.5333 27° Northeast 275 316 6,500 -1,345 Descending KA90
Wed 07:23:29 PM 42.1167 -70.5667 323° Northwest 196 226 5,000 -1,421 Descending KA90
Wed 07:24:23 PM 42.1500 -70.6333 304° West 201 231 3,800 -1,043 Descending KA90
Wed 07:25:24 PM 42.1833 -70.6833 312° West 186 214 3,000 -397 Descending KA90
Wed 07:26:24 PM 42.2000 -70.7500 289° West 192 221 3,000  Level KA90
Wed 07:27:39 PM 42.2358 -70.8217 304° West 193 222 3,000 -44 Level Boston Center
Wed 07:28:40 PM 42.2778 -70.8858 311° West 208 239 2,900 -514 Descending Boston Center
Wed 07:29:24 PM 42.3000 -70.9333 302° West 196 226 2,100 -1,309 Descending KA90
Wed 07:30:30 PM 42.3500 -70.9667 334° Northwest 151 174 500 -1,455 Descending KA90

Login

Don't have an account? Register now (free) for customized features, flight alerts, and more!